createdAt,value
2018-08-07T00:00:26.117Z,23.30
2018-08-07T00:02:54.098Z,23.30
2018-08-07T00:05:22.100Z,23.20
2018-08-07T00:07:51.388Z,23.10
2018-08-07T00:10:22.556Z,23.00
2018-08-07T00:12:50.511Z,22.90
2018-08-07T00:15:18.960Z,22.90
2018-08-07T00:17:46.960Z,22.80
2018-08-07T00:20:16.056Z,22.70
2018-08-07T00:22:45.340Z,22.60
2018-08-07T00:25:13.521Z,22.60
2018-08-07T00:27:42.000Z,22.50
2018-08-07T00:30:14.296Z,22.60
2018-08-07T00:32:42.315Z,22.60
2018-08-07T00:35:12.127Z,22.60
2018-08-07T00:37:41.246Z,22.60
2018-08-07T00:40:12.612Z,22.60
2018-08-07T00:42:40.942Z,22.60
2018-08-07T00:45:10.968Z,22.60
2018-08-07T00:47:38.954Z,22.60
2018-08-07T00:50:09.254Z,22.60
2018-08-07T00:52:37.269Z,22.50
2018-08-07T00:55:05.341Z,22.60
2018-08-07T00:57:33.504Z,22.50
2018-08-07T01:00:01.505Z,22.30
2018-08-07T01:02:29.512Z,22.30
2018-08-07T01:04:57.480Z,22.30
2018-08-07T01:07:25.459Z,22.20
2018-08-07T01:09:53.421Z,22.20
2018-08-07T01:12:21.402Z,22.30
2018-08-07T01:14:49.404Z,22.20
2018-08-07T01:17:17.417Z,22.20
2018-08-07T01:19:45.451Z,22.30
2018-08-07T01:24:41.204Z,22.30
2018-08-07T01:27:09.228Z,22.20
2018-08-07T01:29:37.263Z,22.20
2018-08-07T01:32:05.440Z,22.20
2018-08-07T01:34:33.432Z,22.20
2018-08-07T01:37:01.525Z,22.10
2018-08-07T01:39:29.522Z,22.00
2018-08-07T01:41:57.521Z,22.00
2018-08-07T01:44:25.488Z,21.90
2018-08-07T01:46:53.487Z,21.70
2018-08-07T01:49:21.530Z,21.60
2018-08-07T01:51:49.525Z,21.60
2018-08-07T01:54:17.491Z,21.60
2018-08-07T01:56:46.349Z,21.50
2018-08-07T01:59:14.327Z,21.50
2018-08-07T02:01:42.315Z,21.40
2018-08-07T02:04:10.392Z,21.30
2018-08-07T02:06:38.368Z,21.40
2018-08-07T02:09:07.160Z,21.40
2018-08-07T02:11:35.449Z,21.30
2018-08-07T02:14:03.410Z,21.30
2018-08-07T02:16:31.425Z,21.30
2018-08-07T02:18:59.399Z,21.20
2018-08-07T02:21:27.367Z,21.20
2018-08-07T02:23:55.336Z,21.20
2018-08-07T02:26:23.304Z,21.20
2018-08-07T02:28:51.331Z,21.20
2018-08-07T02:33:47.055Z,21.20
2018-08-07T02:36:15.121Z,21.30
2018-08-07T02:38:43.104Z,21.30
2018-08-07T02:41:11.073Z,21.40
2018-08-07T02:43:39.050Z,21.40
2018-08-07T02:46:07.708Z,21.50
2018-08-07T02:48:35.684Z,21.50
2018-08-07T02:51:03.689Z,21.50
2018-08-07T02:53:31.728Z,21.50
2018-08-07T02:55:59.760Z,21.60
2018-08-07T02:58:27.711Z,21.60
2018-08-07T03:00:56.161Z,21.60
2018-08-07T03:03:24.136Z,21.60
2018-08-07T03:05:52.109Z,21.60
2018-08-07T03:08:20.123Z,21.60
2018-08-07T03:10:48.102Z,21.60
2018-08-07T03:13:16.968Z,21.60
2018-08-07T03:15:44.964Z,21.50
2018-08-07T03:18:12.931Z,21.50
2018-08-07T03:20:40.968Z,21.50
2018-08-07T03:23:08.938Z,21.40
2018-08-07T03:25:36.932Z,21.40
2018-08-07T03:28:05.240Z,21.40
2018-08-07T03:30:33.247Z,21.40
2018-08-07T03:33:01.412Z,21.40
2018-08-07T03:35:29.438Z,21.50
2018-08-07T03:37:57.395Z,21.50
2018-08-07T03:40:25.425Z,21.50
2018-08-07T03:42:53.415Z,21.50
2018-08-07T03:45:21.407Z,21.50
2018-08-07T03:47:49.600Z,21.50
2018-08-07T03:50:17.607Z,21.60
2018-08-07T03:52:45.631Z,21.50
2018-08-07T03:55:15.597Z,21.50
2018-08-07T03:57:44.225Z,21.50
2018-08-07T04:00:14.644Z,21.60
2018-08-07T04:02:42.728Z,21.60
2018-08-07T04:05:10.700Z,21.60
2018-08-07T04:07:38.728Z,21.60
2018-08-07T04:10:09.124Z,21.60
2018-08-07T04:12:37.169Z,21.60
2018-08-07T04:15:06.669Z,21.50
2018-08-07T04:17:35.036Z,21.50
2018-08-07T04:20:03.180Z,21.60
2018-08-07T04:22:31.276Z,21.60
2018-08-07T04:24:59.350Z,21.60
2018-08-07T04:27:27.372Z,21.50
2018-08-07T04:29:55.384Z,21.60
2018-08-07T04:32:23.389Z,21.60
2018-08-07T04:34:51.372Z,21.70
2018-08-07T04:37:19.368Z,21.70
2018-08-07T04:39:48.286Z,21.60
2018-08-07T04:42:16.316Z,21.60
2018-08-07T04:44:44.292Z,21.60
2018-08-07T04:47:12.272Z,21.70
2018-08-07T04:49:40.274Z,21.70
2018-08-07T04:52:08.276Z,21.70
2018-08-07T04:54:36.240Z,21.60
2018-08-07T04:57:04.536Z,21.60
2018-08-07T04:59:32.613Z,21.70
2018-08-07T05:02:00.616Z,21.80
2018-08-07T05:04:28.706Z,21.80
2018-08-07T05:11:59.016Z,21.90
2018-08-07T05:14:27.011Z,21.90
2018-08-07T05:16:55.027Z,21.90
2018-08-07T05:19:22.973Z,22.00
2018-08-07T05:21:51.001Z,22.10
2018-08-07T05:24:19.036Z,22.10
2018-08-07T05:26:47.045Z,22.10
2018-08-07T05:29:15.067Z,22.10
2018-08-07T05:31:43.008Z,22.20
2018-08-07T05:36:38.899Z,22.30
2018-08-07T05:39:08.643Z,22.30
2018-08-07T05:41:36.645Z,22.40
2018-08-07T05:44:04.821Z,22.40
2018-08-07T05:46:33.009Z,22.40
2018-08-07T05:49:01.049Z,22.40
2018-08-07T05:51:29.337Z,22.50
2018-08-07T05:53:57.274Z,22.60
2018-08-07T05:56:25.279Z,22.60
2018-08-07T06:01:21.176Z,22.80
2018-08-07T06:06:17.344Z,22.90
2018-08-07T06:08:45.319Z,23.00
2018-08-07T06:11:13.345Z,23.10
2018-08-07T06:13:41.331Z,23.20
2018-08-07T06:16:09.300Z,23.30
2018-08-07T06:18:37.350Z,23.30
2018-08-07T06:21:05.630Z,23.40
2018-08-07T06:23:33.819Z,23.50
2018-08-07T06:28:44.443Z,23.70
2018-08-07T06:31:12.401Z,23.80
2018-08-07T06:33:40.391Z,23.90
2018-08-07T06:36:08.368Z,23.90
2018-08-07T06:38:36.453Z,24.10
2018-08-07T06:41:04.447Z,24.10
2018-08-07T06:43:32.497Z,24.20
2018-08-07T06:48:28.296Z,24.30
2018-08-07T06:50:56.388Z,24.50
2018-08-07T06:53:24.367Z,24.40
2018-08-07T06:55:52.500Z,24.50
2018-08-07T06:58:20.516Z,24.60
2018-08-07T07:00:48.504Z,24.60
2018-08-07T07:03:16.620Z,24.70
2018-08-07T07:05:44.588Z,24.80
2018-08-07T07:08:12.560Z,24.90
2018-08-07T07:10:40.520Z,24.80
2018-08-07T07:13:08.494Z,24.90
2018-08-07T07:15:36.465Z,25.00
2018-08-07T07:18:04.907Z,25.00
2018-08-07T07:20:33.072Z,25.10
2018-08-07T07:23:01.100Z,25.20
2018-08-07T07:25:29.143Z,25.40
2018-08-07T07:27:57.137Z,25.50
2018-08-07T07:30:25.105Z,25.40
2018-08-07T07:32:54.560Z,25.70
2018-08-07T07:35:22.683Z,25.80
2018-08-07T07:37:50.914Z,25.70
2018-08-07T07:40:18.932Z,25.70
2018-08-07T07:42:46.948Z,25.80
2018-08-07T07:45:16.691Z,25.90
2018-08-07T07:47:44.878Z,26.00
2018-08-07T07:50:15.130Z,26.10
2018-08-07T07:52:43.360Z,26.20
2018-08-07T07:55:12.476Z,26.30
2018-08-07T07:57:40.656Z,26.40
2018-08-07T08:00:19.144Z,26.50
2018-08-07T08:02:47.286Z,26.60
2018-08-07T08:05:15.411Z,26.60
2018-08-07T08:07:43.349Z,26.70
2018-08-07T08:10:11.368Z,26.80
2018-08-07T08:12:39.977Z,26.80
2018-08-07T08:15:10.477Z,26.90
2018-08-07T08:17:38.508Z,26.90
2018-08-07T08:20:08.616Z,27.00
2018-08-07T08:22:36.677Z,27.10
2018-08-07T08:25:05.443Z,27.20
2018-08-07T08:27:33.616Z,27.20
2018-08-07T08:30:01.728Z,27.30
2018-08-07T08:32:29.760Z,27.40
2018-08-07T08:34:57.902Z,27.50
2018-08-07T08:37:25.906Z,27.60
2018-08-07T08:39:53.977Z,27.60
2018-08-07T08:42:22.044Z,27.70
2018-08-07T08:44:50.017Z,27.70
2018-08-07T08:47:18.094Z,27.90
2018-08-07T08:49:46.056Z,28.00
2018-08-07T08:52:14.025Z,28.20
2018-08-07T08:57:09.866Z,28.30
2018-08-07T08:59:38.414Z,28.30
2018-08-07T09:02:07.134Z,28.50
2018-08-07T09:04:35.183Z,28.60
2018-08-07T09:07:03.199Z,28.70
2018-08-07T09:09:31.264Z,29.00
2018-08-07T09:11:59.237Z,29.20
2018-08-07T09:14:27.201Z,29.20
2018-08-07T09:16:55.156Z,29.40
2018-08-07T09:19:23.399Z,29.50
2018-08-07T09:21:52.209Z,29.50
2018-08-07T09:24:20.284Z,29.60
2018-08-07T09:26:48.276Z,29.80
2018-08-07T09:29:16.298Z,29.80
2018-08-07T09:31:44.421Z,30.00
2018-08-07T09:34:12.358Z,30.00
2018-08-07T09:36:40.337Z,30.00
2018-08-07T09:39:10.569Z,30.00
2018-08-07T09:41:38.648Z,30.00
2018-08-07T09:44:07.223Z,30.20
2018-08-07T09:46:35.294Z,30.20
2018-08-07T09:49:03.615Z,30.30
2018-08-07T09:51:31.676Z,30.20
2018-08-07T09:53:59.727Z,30.40
2018-08-07T09:56:27.725Z,30.50
2018-08-07T09:58:55.752Z,30.60
2018-08-07T10:01:37.122Z,30.70
2018-08-07T10:04:06.119Z,30.60
2018-08-07T10:06:34.132Z,30.60
2018-08-07T10:09:02.269Z,30.70
2018-08-07T10:11:30.255Z,30.90
2018-08-07T10:13:58.265Z,30.90
2018-08-07T10:16:26.292Z,31.00
2018-08-07T10:18:54.332Z,31.00
2018-08-07T10:21:22.968Z,31.10
2018-08-07T10:23:51.006Z,31.30
2018-08-07T10:26:19.057Z,31.40
2018-08-07T10:28:47.049Z,31.50
2018-08-07T10:31:15.014Z,31.60
2018-08-07T10:33:43.088Z,31.60
2018-08-07T10:36:11.048Z,31.60
2018-08-07T10:38:39.035Z,31.70
2018-08-07T10:41:07.446Z,31.90
2018-08-07T10:43:35.452Z,32.00
2018-08-07T10:46:03.433Z,32.00
2018-08-07T10:48:31.832Z,32.00
2018-08-07T10:50:59.825Z,32.10
2018-08-07T10:53:27.803Z,32.20
2018-08-07T10:55:55.851Z,32.30
2018-08-07T10:58:23.923Z,32.30
2018-08-07T11:00:51.860Z,32.30
2018-08-07T11:03:19.912Z,32.20
2018-08-07T11:05:47.898Z,32.40
2018-08-07T11:08:15.889Z,32.60
2018-08-07T11:10:43.928Z,32.70
2018-08-07T11:13:11.898Z,32.90
2018-08-07T11:18:07.707Z,32.90
2018-08-07T11:20:35.722Z,33.00
2018-08-07T11:23:04.133Z,33.20
2018-08-07T11:25:32.943Z,33.20
2018-08-07T11:28:01.511Z,33.20
2018-08-07T11:30:30.312Z,33.40
2018-08-07T11:32:59.535Z,33.50
2018-08-07T11:35:27.999Z,33.60
2018-08-07T11:37:57.151Z,33.60
2018-08-07T11:40:25.706Z,33.90
2018-08-07T11:42:54.832Z,34.10
2018-08-07T11:45:25.196Z,34.10
2018-08-07T11:47:54.146Z,34.20
2018-08-07T11:50:24.458Z,34.40
2018-08-07T11:52:52.492Z,34.70
2018-08-07T11:55:21.078Z,35.00
2018-08-07T11:57:50.199Z,35.40
2018-08-07T12:00:21.689Z,35.70
2018-08-07T12:02:49.928Z,36.20
2018-08-07T12:05:18.076Z,36.90
2018-08-07T12:07:46.170Z,37.30
2018-08-07T12:10:15.366Z,38.30
2018-08-07T12:12:43.880Z,39.10
2018-08-07T12:15:15.234Z,39.90
2018-08-07T12:17:43.293Z,41.10
2018-08-07T12:20:11.285Z,41.30
2018-08-07T12:22:39.501Z,41.00
2018-08-07T12:25:08.560Z,41.40
2018-08-07T12:27:36.571Z,41.90
2018-08-07T12:30:17.265Z,42.40
2018-08-07T12:32:45.790Z,42.40
2018-08-07T12:35:13.801Z,41.70
2018-08-07T12:37:41.816Z,42.10
2018-08-07T12:40:14.606Z,42.80
2018-08-07T12:42:42.592Z,44.10
2018-08-07T12:45:11.302Z,44.40
2018-08-07T12:47:39.882Z,45.50
2018-08-07T12:50:09.136Z,46.40
2018-08-07T12:52:37.226Z,46.00
2018-08-07T12:55:05.983Z,46.00
2018-08-07T12:57:33.944Z,46.10
2018-08-07T13:02:30.335Z,45.20
2018-08-07T13:04:58.305Z,45.50
2018-08-07T13:07:28.622Z,45.10
2018-08-07T13:09:56.727Z,44.80
2018-08-07T13:12:25.524Z,44.70
2018-08-07T13:14:53.556Z,44.30
2018-08-07T13:17:21.592Z,45.30
2018-08-07T13:19:49.582Z,45.60
2018-08-07T13:22:17.661Z,44.90
2018-08-07T13:24:45.739Z,43.70
2018-08-07T13:27:13.740Z,43.70
2018-08-07T13:29:41.720Z,45.10
2018-08-07T13:32:09.755Z,46.60
2018-08-07T13:37:05.849Z,46.70
2018-08-07T13:39:33.825Z,47.00
2018-08-07T13:42:01.935Z,44.20
2018-08-07T13:44:29.942Z,45.30
2018-08-07T13:46:57.972Z,44.70
2018-08-07T13:49:26.052Z,45.70
2018-08-07T13:51:54.037Z,45.60
2018-08-07T13:54:22.159Z,43.40
2018-08-07T13:56:50.173Z,44.00
2018-08-07T13:59:18.217Z,45.00
2018-08-07T14:01:46.186Z,46.00
2018-08-07T14:04:14.208Z,45.30
2018-08-07T14:06:42.326Z,46.30
2018-08-07T14:09:10.283Z,47.30
2018-08-07T14:11:38.406Z,48.30
2018-08-07T14:14:06.400Z,46.10
2018-08-07T14:16:34.410Z,44.60
2018-08-07T14:19:02.911Z,42.70
2018-08-07T14:21:30.921Z,42.50
2018-08-07T14:23:58.882Z,42.30
2018-08-07T14:26:26.879Z,43.80
2018-08-07T14:28:54.911Z,45.00
2018-08-07T14:31:22.899Z,46.00
2018-08-07T14:33:51.107Z,46.90
2018-08-07T14:36:19.155Z,46.50
2018-08-07T14:38:47.153Z,45.90
2018-08-07T14:41:15.126Z,46.20
2018-08-07T14:43:43.469Z,45.00
2018-08-07T14:46:11.446Z,46.00
2018-08-07T14:48:39.555Z,45.30
2018-08-07T14:51:07.506Z,45.70
2018-08-07T14:53:35.500Z,46.20
2018-08-07T14:58:31.341Z,45.40
2018-08-07T15:00:59.704Z,44.50
2018-08-07T15:03:27.849Z,44.80
2018-08-07T15:05:55.955Z,44.90
2018-08-07T15:08:23.907Z,45.30
2018-08-07T15:10:52.004Z,44.90
2018-08-07T15:13:20.008Z,44.40
2018-08-07T15:15:48.048Z,45.10
2018-08-07T15:18:16.090Z,45.30
2018-08-07T15:20:44.073Z,45.40
2018-08-07T15:23:12.063Z,44.60
2018-08-07T15:25:40.081Z,44.90
2018-08-07T15:28:08.096Z,45.00
2018-08-07T15:30:36.134Z,44.10
2018-08-07T15:33:04.680Z,43.20
2018-08-07T15:35:32.752Z,42.70
2018-08-07T15:38:00.802Z,42.80
2018-08-07T15:40:28.808Z,43.00
2018-08-07T15:42:57.739Z,43.10
2018-08-07T15:45:26.326Z,41.80
2018-08-07T15:47:54.374Z,41.10
2018-08-07T15:50:22.764Z,40.80
2018-08-07T15:52:52.020Z,41.30
2018-08-07T15:55:21.512Z,41.70
2018-08-07T15:57:49.563Z,41.60
2018-08-07T16:00:23.331Z,41.50
2018-08-07T16:02:51.368Z,41.10
2018-08-07T16:05:19.470Z,41.40
2018-08-07T16:07:47.980Z,41.60
2018-08-07T16:10:17.160Z,41.00
2018-08-07T16:12:46.156Z,40.80
2018-08-07T16:15:14.275Z,41.10
2018-08-07T16:17:42.693Z,40.50
2018-08-07T16:20:10.665Z,40.70
2018-08-07T16:22:39.557Z,40.80
2018-08-07T16:25:08.852Z,40.50
2018-08-07T16:27:36.822Z,40.00
2018-08-07T16:30:07.649Z,40.00
2018-08-07T16:32:35.632Z,39.90
2018-08-07T16:35:03.765Z,40.00
2018-08-07T16:37:31.797Z,40.10
2018-08-07T16:39:59.845Z,39.50
2018-08-07T16:42:28.809Z,39.50
2018-08-07T16:44:57.291Z,39.60
2018-08-07T16:47:25.279Z,39.80
2018-08-07T16:49:53.239Z,39.90
2018-08-07T16:52:21.220Z,39.70
2018-08-07T16:57:17.050Z,39.90
2018-08-07T16:59:45.048Z,40.10
2018-08-07T17:02:13.271Z,40.00
2018-08-07T17:04:41.246Z,40.10
2018-08-07T17:07:09.258Z,40.40
2018-08-07T17:09:37.203Z,40.40
2018-08-07T17:12:05.559Z,40.30
2018-08-07T17:14:33.604Z,40.50
2018-08-07T17:17:01.648Z,40.50
2018-08-07T17:19:29.648Z,40.30
2018-08-07T17:21:57.612Z,39.80
2018-08-07T17:24:25.592Z,39.10
2018-08-07T17:26:53.797Z,38.60
2018-08-07T17:31:49.797Z,38.40
2018-08-07T17:34:17.910Z,38.40
2018-08-07T17:36:45.912Z,37.90
2018-08-07T17:39:13.884Z,37.70
2018-08-07T17:41:41.828Z,37.20
2018-08-07T17:44:09.796Z,36.90
2018-08-07T17:46:37.812Z,36.70
2018-08-07T17:49:05.988Z,36.70
2018-08-07T17:51:34.078Z,36.90
2018-08-07T17:54:02.154Z,37.00
2018-08-07T17:56:30.171Z,37.10
2018-08-07T17:58:58.172Z,37.00
2018-08-07T18:01:26.183Z,36.90
2018-08-07T18:03:54.151Z,36.70
2018-08-07T18:06:22.246Z,36.70
2018-08-07T18:11:18.001Z,36.40
2018-08-07T18:13:45.973Z,36.10
2018-08-07T18:16:14.042Z,36.00
2018-08-07T18:18:42.185Z,35.90
2018-08-07T18:21:10.108Z,35.70
2018-08-07T18:23:38.161Z,35.60
2018-08-07T18:26:06.136Z,35.50
2018-08-07T18:28:34.182Z,35.30
2018-08-07T18:31:02.171Z,35.30
2018-08-07T18:33:30.860Z,35.20
2018-08-07T18:35:58.817Z,35.00
2018-08-07T18:38:26.842Z,34.70
2018-08-07T18:40:54.820Z,34.70
2018-08-07T18:43:22.800Z,34.70
2018-08-07T18:45:50.933Z,34.70
2018-08-07T18:48:18.956Z,34.70
2018-08-07T18:50:46.964Z,34.70
2018-08-07T18:53:14.955Z,34.70
2018-08-07T18:58:10.740Z,34.70
2018-08-07T19:00:38.771Z,34.70
2018-08-07T19:03:06.730Z,34.50
2018-08-07T19:05:34.715Z,34.10
2018-08-07T19:08:02.715Z,33.60
2018-08-07T19:10:31.232Z,33.10
2018-08-07T19:12:59.226Z,32.60
2018-08-07T19:15:27.216Z,32.00
2018-08-07T19:17:55.221Z,31.90
2018-08-07T19:20:23.484Z,31.70
2018-08-07T19:22:51.601Z,31.50
2018-08-07T19:25:19.887Z,31.20
2018-08-07T19:27:47.908Z,31.10
2018-08-07T19:30:17.359Z,31.10
2018-08-07T19:32:45.442Z,31.00
2018-08-07T19:35:13.939Z,30.90
2018-08-07T19:37:41.944Z,31.00
2018-08-07T19:40:12.768Z,30.50
2018-08-07T19:42:40.752Z,30.50
2018-08-07T19:45:09.961Z,30.50
2018-08-07T19:47:37.949Z,30.60
2018-08-07T19:50:07.432Z,30.70
2018-08-07T19:52:36.193Z,30.60
2018-08-07T19:55:04.596Z,30.60
2018-08-07T19:57:32.792Z,30.70
2018-08-07T20:00:00.862Z,30.70
2018-08-07T20:02:28.892Z,30.70
2018-08-07T20:04:56.853Z,30.70
2018-08-07T20:07:24.897Z,30.80
2018-08-07T20:09:52.848Z,30.90
2018-08-07T20:12:20.812Z,30.90
2018-08-07T20:14:48.780Z,30.90
2018-08-07T20:17:18.465Z,30.90
2018-08-07T20:19:46.436Z,30.90
2018-08-07T20:22:15.936Z,30.90
2018-08-07T20:24:43.936Z,30.80
2018-08-07T20:27:12.212Z,30.80
2018-08-07T20:29:40.182Z,30.70
2018-08-07T20:32:08.680Z,30.60
2018-08-07T20:34:36.659Z,30.50
2018-08-07T20:37:04.727Z,30.50
2018-08-07T20:39:32.793Z,30.60
2018-08-07T20:44:28.616Z,30.60
2018-08-07T20:46:56.676Z,30.60
2018-08-07T20:49:24.650Z,30.60
2018-08-07T20:51:52.648Z,30.60
2018-08-07T20:54:20.576Z,30.60
2018-08-07T20:57:16.774Z,30.60
2018-08-07T20:59:44.873Z,30.60
2018-08-07T21:02:12.860Z,30.60
2018-08-07T21:04:40.816Z,30.50
2018-08-07T21:07:08.911Z,30.40
2018-08-07T21:09:36.905Z,30.20
2018-08-07T21:12:04.925Z,30.20
2018-08-07T21:14:33.224Z,30.20
2018-08-07T21:17:01.289Z,30.10
2018-08-07T21:19:29.392Z,30.10
2018-08-07T21:21:57.442Z,30.20
2018-08-07T21:24:25.411Z,30.10
2018-08-07T21:26:53.468Z,30.00
2018-08-07T21:29:21.527Z,29.90
2018-08-07T21:31:49.514Z,29.70
2018-08-07T21:34:17.612Z,29.60
2018-08-07T21:36:45.632Z,29.50
2018-08-07T21:39:13.661Z,29.40
2018-08-07T21:41:41.693Z,29.30
2018-08-07T21:44:09.631Z,29.30
2018-08-07T21:46:38.323Z,29.30
2018-08-07T21:49:06.346Z,29.40
2018-08-07T21:51:34.374Z,29.40
2018-08-07T21:54:02.431Z,29.30
2018-08-07T21:56:30.362Z,29.20
2018-08-07T21:58:58.334Z,29.20
2018-08-07T22:01:26.352Z,29.20
2018-08-07T22:03:54.312Z,29.30
2018-08-07T22:06:22.301Z,29.20
2018-08-07T22:08:50.293Z,29.20
2018-08-07T22:11:18.248Z,29.20
2018-08-07T22:13:46.216Z,29.00
2018-08-07T22:16:14.472Z,28.90
2018-08-07T22:18:42.449Z,28.90
2018-08-07T22:21:10.426Z,28.70
2018-08-07T22:23:38.373Z,28.70
2018-08-07T22:26:06.348Z,28.60
2018-08-07T22:28:34.327Z,28.70
2018-08-07T22:31:02.395Z,28.70
2018-08-07T22:33:30.348Z,28.60
2018-08-07T22:35:58.320Z,28.70
2018-08-07T22:38:26.263Z,28.60
2018-08-07T22:40:54.256Z,28.70
2018-08-07T22:43:22.225Z,28.60
2018-08-07T22:45:50.187Z,28.40
2018-08-07T22:48:18.144Z,28.50
2018-08-07T22:50:46.126Z,28.50
2018-08-07T22:53:14.109Z,28.50
2018-08-07T22:55:42.130Z,28.50
2018-08-07T22:58:10.165Z,28.40
2018-08-07T23:00:38.102Z,28.40
2018-08-07T23:03:06.587Z,28.40
2018-08-07T23:05:34.728Z,28.30
2018-08-07T23:08:02.713Z,28.10
2018-08-07T23:10:30.778Z,28.00
2018-08-07T23:12:58.776Z,28.00
2018-08-07T23:15:26.873Z,28.00
2018-08-07T23:17:54.823Z,28.00
2018-08-07T23:20:24.151Z,28.00
2018-08-07T23:22:53.788Z,28.00
2018-08-07T23:25:21.966Z,28.00
2018-08-07T23:27:49.971Z,28.00
2018-08-07T23:30:18.958Z,27.90
2018-08-07T23:32:47.025Z,27.80
2018-08-07T23:35:15.630Z,27.90
2018-08-07T23:37:43.703Z,27.80
2018-08-07T23:40:12.711Z,27.80
2018-08-07T23:42:41.446Z,27.80
2018-08-07T23:45:10.926Z,27.80
2018-08-07T23:47:38.967Z,27.80
2018-08-07T23:50:07.455Z,27.70
2018-08-07T23:52:35.427Z,27.70
2018-08-07T23:55:03.865Z,27.70
2018-08-07T23:57:31.837Z,27.70
2018-08-07T23:59:59.820Z,27.70
